createdAt,value
2023-05-10T00:00:52.604Z,119756.75
2023-05-10T00:03:19.316Z,119694.88
2023-05-10T00:05:46.642Z,119578.47
2023-05-10T00:08:14.658Z,119641.00
2023-05-10T00:10:41.196Z,120025.28
2023-05-10T00:13:08.049Z,119921.38
2023-05-10T00:15:34.851Z,120132.16
2023-05-10T00:18:01.425Z,120062.69
2023-05-10T00:20:28.137Z,120040.44
2023-05-10T00:22:54.688Z,120250.94
2023-05-10T00:25:21.228Z,120108.56
2023-05-10T00:27:47.871Z,120077.78
2023-05-10T00:30:14.732Z,120647.06
2023-05-10T00:32:41.541Z,120491.13
2023-05-10T00:35:09.594Z,120544.03
2023-05-10T00:37:36.237Z,120693.97
2023-05-10T00:40:02.887Z,120768.06
2023-05-10T00:42:29.414Z,120513.78
2023-05-10T00:44:56.087Z,120813.78
2023-05-10T00:47:23.652Z,120776.09
2023-05-10T00:49:51.802Z,120623.75
2023-05-10T00:52:18.364Z,120470.38
2023-05-10T00:54:45.098Z,120590.28
2023-05-10T00:57:12.065Z,120786.34
2023-05-10T00:59:38.734Z,120944.00
2023-05-10T01:02:06.340Z,121105.06
2023-05-10T01:04:33.426Z,121217.66
2023-05-10T01:06:59.986Z,121340.81
2023-05-10T01:09:26.708Z,121551.25
2023-05-10T01:11:54.468Z,121494.38
2023-05-10T01:14:24.432Z,121563.22
2023-05-10T01:16:51.400Z,121670.38
2023-05-10T01:19:24.632Z,121837.47
2023-05-10T01:22:11.542Z,121840.41
2023-05-10T01:25:05.626Z,121958.59
2023-05-10T01:27:37.811Z,121935.50
2023-05-10T01:30:28.184Z,121905.16
2023-05-10T01:32:54.860Z,121981.00
2023-05-10T01:35:38.443Z,122091.91
2023-05-10T01:38:11.178Z,122163.69
2023-05-10T01:40:53.443Z,122320.22
2023-05-10T01:43:27.197Z,122129.47
2023-05-10T01:46:00.703Z,122243.03
2023-05-10T01:48:29.744Z,122164.41
2023-05-10T01:50:57.856Z,121813.13
2023-05-10T01:53:27.364Z,122270.91
2023-05-10T01:55:56.234Z,122134.19
2023-05-10T01:58:30.869Z,121886.97
2023-05-10T02:01:01.055Z,121821.81
2023-05-10T02:03:29.098Z,122038.69
2023-05-10T02:05:57.331Z,121850.75
2023-05-10T02:08:24.941Z,121834.38
2023-05-10T02:10:53.384Z,121804.75
2023-05-10T02:13:20.755Z,121591.00
2023-05-10T02:15:52.192Z,121806.34
2023-05-10T02:18:19.436Z,121670.06
2023-05-10T02:20:48.228Z,121853.63
2023-05-10T02:23:16.784Z,121867.28
2023-05-10T02:25:44.838Z,121855.94
2023-05-10T02:28:13.358Z,121732.38
2023-05-10T02:30:40.271Z,121718.31
2023-05-10T02:33:07.562Z,121515.91
2023-05-10T02:35:36.107Z,121404.47
2023-05-10T02:38:03.423Z,121366.66
2023-05-10T02:40:31.119Z,121487.81
2023-05-10T02:43:00.422Z,121287.34
2023-05-10T02:45:31.180Z,121045.28
2023-05-10T02:47:58.038Z,120814.28
2023-05-10T02:50:28.946Z,120285.31
2023-05-10T02:53:01.741Z,119107.84
2023-05-10T02:55:37.433Z,118737.59
2023-05-10T02:58:05.004Z,118662.81
2023-05-10T03:00:32.612Z,118871.81
2023-05-10T03:02:59.534Z,119024.00
2023-05-10T03:05:26.102Z,118775.75
2023-05-10T03:07:53.618Z,118672.78
2023-05-10T03:10:21.706Z,118675.66
2023-05-10T03:13:08.689Z,118325.00
2023-05-10T03:16:03.680Z,118222.09
2023-05-10T03:18:43.567Z,118271.56
2023-05-10T03:21:12.383Z,118152.94
2023-05-10T03:23:51.287Z,118007.19
2023-05-10T03:26:28.638Z,117949.28
2023-05-10T03:28:56.383Z,117948.34
2023-05-10T03:31:23.297Z,117986.09
2023-05-10T03:33:50.914Z,118017.78
2023-05-10T03:36:18.233Z,118071.75
2023-05-10T03:38:44.842Z,118016.66
2023-05-10T03:41:11.898Z,117834.53
2023-05-10T03:43:38.532Z,117661.50
2023-05-10T03:46:06.140Z,117480.13
2023-05-10T03:48:36.280Z,117421.44
2023-05-10T03:51:02.978Z,117486.28
2023-05-10T03:53:29.472Z,117346.50
2023-05-10T03:55:55.990Z,117302.00
2023-05-10T03:58:23.046Z,117107.47
2023-05-10T04:00:49.787Z,117258.25
2023-05-10T04:03:16.550Z,117198.44
2023-05-10T04:05:43.025Z,117650.25
2023-05-10T04:08:09.760Z,117668.38
2023-05-10T04:10:36.590Z,117473.69
2023-05-10T04:13:03.213Z,117428.63
2023-05-10T04:15:29.763Z,117373.13
2023-05-10T04:17:56.335Z,117386.25
2023-05-10T04:20:22.998Z,117309.50
2023-05-10T04:22:49.427Z,117339.53
2023-05-10T04:25:16.591Z,117334.75
2023-05-10T04:27:43.695Z,117419.31
2023-05-10T04:30:10.534Z,118001.31
2023-05-10T04:32:37.101Z,117933.31
2023-05-10T04:35:03.796Z,117809.44
2023-05-10T04:37:30.532Z,117906.97
2023-05-10T04:39:57.164Z,117924.97
2023-05-10T04:42:23.715Z,117893.06
2023-05-10T04:44:50.135Z,117889.19
2023-05-10T04:47:16.665Z,117812.03
2023-05-10T04:49:43.155Z,117907.59
2023-05-10T04:52:09.799Z,117887.75
2023-05-10T04:54:36.516Z,117841.59
2023-05-10T04:57:03.048Z,117800.00
2023-05-10T04:59:29.931Z,117614.41
2023-05-10T05:01:56.618Z,117643.25
2023-05-10T05:04:23.143Z,117423.69
2023-05-10T05:06:51.704Z,117278.94
2023-05-10T05:09:20.178Z,117163.63
2023-05-10T05:11:47.158Z,117213.94
2023-05-10T05:14:13.990Z,117102.91
2023-05-10T05:16:40.762Z,116985.22
2023-05-10T05:19:07.359Z,116982.94
2023-05-10T05:21:33.941Z,116895.38
2023-05-10T05:24:00.592Z,116761.38
2023-05-10T05:26:27.660Z,116585.81
2023-05-10T05:28:54.329Z,116236.50
2023-05-10T05:31:21.519Z,115963.22
2023-05-10T05:33:48.287Z,115744.38
2023-05-10T05:36:14.967Z,115633.06
2023-05-10T05:38:41.548Z,115212.31
2023-05-10T05:41:08.302Z,115073.00
2023-05-10T05:43:37.520Z,115015.81
2023-05-10T05:46:05.464Z,114987.81
2023-05-10T05:48:32.293Z,114937.03
2023-05-10T05:50:59.140Z,114852.69
2023-05-10T05:53:25.769Z,114795.63
2023-05-10T05:55:54.649Z,114789.84
2023-05-10T05:58:22.445Z,114783.91
2023-05-10T06:00:49.622Z,114619.44
2023-05-10T06:03:16.316Z,114629.50
2023-05-10T06:05:43.123Z,114573.22
2023-05-10T06:08:09.724Z,114477.06
2023-05-10T06:10:37.217Z,114453.25
2023-05-10T06:13:03.842Z,114342.53
2023-05-10T06:15:31.398Z,114340.16
2023-05-10T06:17:58.053Z,114337.44
2023-05-10T06:20:25.363Z,114217.69
2023-05-10T06:22:52.150Z,114248.31
2023-05-10T06:25:19.784Z,114149.03
2023-05-10T06:27:51.778Z,114038.41
2023-05-10T06:30:20.207Z,114013.50
2023-05-10T06:32:47.607Z,113929.50
2023-05-10T06:35:14.477Z,113881.31
2023-05-10T06:37:41.886Z,113798.06
2023-05-10T06:40:08.853Z,113729.38
2023-05-10T06:42:35.361Z,113819.41
2023-05-10T06:45:01.924Z,113948.00
2023-05-10T06:47:28.425Z,114275.84
2023-05-10T06:49:54.977Z,114282.72
2023-05-10T06:52:21.509Z,114300.81
2023-05-10T06:54:48.384Z,113873.59
2023-05-10T06:57:27.573Z,113762.78
2023-05-10T06:59:58.617Z,113567.03
2023-05-10T07:02:26.375Z,113347.47
2023-05-10T07:04:53.453Z,113296.38
2023-05-10T07:07:20.621Z,113350.91
2023-05-10T07:09:47.609Z,113250.47
2023-05-10T07:12:15.210Z,113053.16
2023-05-10T07:14:43.400Z,112893.22
2023-05-10T07:17:11.189Z,112859.19
2023-05-10T07:19:38.054Z,112636.56
2023-05-10T07:22:04.750Z,112391.97
2023-05-10T07:24:31.319Z,112232.03
2023-05-10T07:26:57.779Z,111760.03
2023-05-10T07:29:24.501Z,111656.69
2023-05-10T07:31:51.197Z,111297.31
2023-05-10T07:34:18.019Z,110792.38
2023-05-10T07:36:44.606Z,110343.41
2023-05-10T07:39:12.724Z,110058.78
2023-05-10T07:41:42.926Z,109618.13
2023-05-10T07:44:09.529Z,109551.13
2023-05-10T07:46:36.307Z,109327.69
2023-05-10T07:49:02.831Z,109183.75
2023-05-10T07:51:29.469Z,109040.00
2023-05-10T07:53:56.145Z,108939.41
2023-05-10T07:56:30.968Z,108888.56
2023-05-10T07:58:57.674Z,108585.22
2023-05-10T08:01:24.726Z,108455.56
2023-05-10T08:03:51.493Z,108316.44
2023-05-10T08:06:19.644Z,108181.41
2023-05-10T08:08:50.274Z,108121.56
2023-05-10T08:11:21.317Z,107822.25
2023-05-10T08:13:49.077Z,107683.81
2023-05-10T08:16:16.016Z,107565.34
2023-05-10T08:18:42.607Z,107410.13
2023-05-10T08:21:09.295Z,107386.78
2023-05-10T08:23:35.946Z,107306.41
2023-05-10T08:26:02.487Z,107278.81
2023-05-10T08:28:29.010Z,107283.97
2023-05-10T08:30:55.584Z,107311.44
2023-05-10T08:33:22.283Z,107208.66
2023-05-10T08:35:49.431Z,107233.75
2023-05-10T08:38:16.045Z,107151.78
2023-05-10T08:40:44.342Z,107139.31
2023-05-10T08:43:12.923Z,107140.88
2023-05-10T08:45:41.446Z,107060.41
2023-05-10T08:48:09.771Z,106985.06
2023-05-10T08:50:43.112Z,106883.81
2023-05-10T08:53:14.412Z,106785.63
2023-05-10T08:55:42.997Z,106658.75
2023-05-10T08:58:10.416Z,106617.59
2023-05-10T09:00:37.955Z,106623.56
2023-05-10T09:03:06.218Z,106617.66
2023-05-10T09:05:32.908Z,106564.31
2023-05-10T09:07:59.572Z,106510.97
2023-05-10T09:10:27.378Z,106458.59
2023-05-10T09:12:57.981Z,106446.72
2023-05-10T09:15:25.840Z,106420.22
2023-05-10T09:17:52.462Z,106526.22
2023-05-10T09:20:19.378Z,106329.31
2023-05-10T09:22:46.307Z,106450.88
2023-05-10T09:25:16.594Z,106483.31
2023-05-10T09:27:49.024Z,106120.84
2023-05-10T09:30:25.668Z,106053.81
2023-05-10T09:32:53.186Z,105974.59
2023-05-10T09:35:27.204Z,105850.31
2023-05-10T09:37:58.978Z,105835.31
2023-05-10T09:40:29.017Z,105540.94
2023-05-10T09:42:59.556Z,105501.44
2023-05-10T09:45:28.460Z,105440.56
2023-05-10T09:47:56.095Z,105284.00
2023-05-10T09:50:24.978Z,105191.13
2023-05-10T09:52:51.485Z,105112.88
2023-05-10T09:55:22.718Z,105139.00
2023-05-10T09:57:50.327Z,105088.16
2023-05-10T10:00:21.021Z,105013.97
2023-05-10T10:02:55.237Z,105008.56
2023-05-10T10:05:22.009Z,105030.38
2023-05-10T10:07:48.749Z,105086.81
2023-05-10T10:10:15.382Z,105074.31
2023-05-10T10:12:42.659Z,104949.78
2023-05-10T10:15:09.955Z,104936.63
2023-05-10T10:17:37.737Z,105060.91
2023-05-10T10:20:04.729Z,105017.13
2023-05-10T10:22:31.442Z,104889.84
2023-05-10T10:24:58.356Z,104895.47
2023-05-10T10:27:34.710Z,104896.94
2023-05-10T10:30:13.365Z,104922.59
2023-05-10T10:32:58.514Z,104869.66
2023-05-10T10:35:25.337Z,104860.53
2023-05-10T10:37:52.235Z,104822.84
2023-05-10T10:40:28.604Z,104599.91
2023-05-10T10:42:56.070Z,104549.38
2023-05-10T10:45:23.917Z,104597.31
2023-05-10T10:48:14.420Z,104625.97
2023-05-10T10:50:47.380Z,104594.41
2023-05-10T10:53:14.100Z,104555.38
2023-05-10T10:55:50.196Z,104555.19
2023-05-10T10:58:32.694Z,104632.38
2023-05-10T11:01:13.635Z,104638.09
2023-05-10T11:03:40.239Z,104673.16
2023-05-10T11:06:07.249Z,104692.78
2023-05-10T11:08:37.569Z,104670.63
2023-05-10T11:11:07.320Z,104699.44
2023-05-10T11:13:41.816Z,104780.09
2023-05-10T11:16:13.894Z,104793.38
2023-05-10T11:18:40.963Z,104798.25
2023-05-10T11:21:10.351Z,104756.72
2023-05-10T11:23:55.825Z,104828.56
2023-05-10T11:26:23.567Z,104822.59
2023-05-10T11:28:50.312Z,104851.03
2023-05-10T11:31:18.930Z,104880.31
2023-05-10T11:33:50.528Z,104900.91
2023-05-10T11:36:23.289Z,104910.63
2023-05-10T11:38:50.290Z,104862.94
2023-05-10T11:41:19.711Z,104850.44
2023-05-10T11:43:54.199Z,104828.72
2023-05-10T11:46:22.673Z,104762.00
2023-05-10T11:48:59.065Z,104769.00
2023-05-10T11:51:26.333Z,104726.41
2023-05-10T11:53:57.947Z,104678.38
2023-05-10T11:56:24.725Z,104642.19
2023-05-10T11:58:56.170Z,104631.34
2023-05-10T12:01:23.542Z,104581.94
2023-05-10T12:03:51.861Z,104592.66
2023-05-10T12:06:20.048Z,104568.56
2023-05-10T12:08:48.757Z,104551.38
2023-05-10T12:11:15.516Z,104534.16
2023-05-10T12:13:44.437Z,104549.34
2023-05-10T12:16:33.980Z,104569.41
2023-05-10T12:19:01.903Z,104560.53
2023-05-10T12:21:31.539Z,104564.56
2023-05-10T12:24:03.820Z,104543.19
2023-05-10T12:26:30.619Z,104550.31
2023-05-10T12:29:13.764Z,104575.22
2023-05-10T12:32:10.063Z,104580.97
2023-05-10T12:34:37.337Z,104556.25
2023-05-10T12:37:04.632Z,104557.19
2023-05-10T12:39:45.174Z,104549.47
2023-05-10T12:42:11.907Z,104558.03
2023-05-10T12:44:38.538Z,104559.63
2023-05-10T12:47:05.148Z,104516.34
2023-05-10T12:49:31.911Z,104492.25
2023-05-10T12:51:58.523Z,104471.50
2023-05-10T12:54:24.991Z,104455.00
2023-05-10T12:56:51.589Z,104442.88
2023-05-10T12:59:18.382Z,104421.69
2023-05-10T13:01:44.985Z,104415.47
2023-05-10T13:04:11.646Z,104396.97
2023-05-10T13:06:38.497Z,104416.00
2023-05-10T13:09:05.087Z,104354.00
2023-05-10T13:11:31.717Z,104313.03
2023-05-10T13:13:58.661Z,104274.75
2023-05-10T13:16:25.204Z,104231.50
2023-05-10T13:18:51.857Z,104248.59
2023-05-10T13:21:18.382Z,104227.50
2023-05-10T13:23:44.868Z,104210.88
2023-05-10T13:26:11.383Z,104205.28
2023-05-10T13:28:37.854Z,104180.53
2023-05-10T13:31:04.388Z,104187.47
2023-05-10T13:33:31.032Z,104154.47
2023-05-10T13:35:57.675Z,104127.91
2023-05-10T13:38:24.207Z,104116.03
2023-05-10T13:40:50.750Z,104124.78
2023-05-10T13:43:17.287Z,104122.63
2023-05-10T13:45:43.768Z,104102.97
2023-05-10T13:48:10.351Z,104078.25
2023-05-10T13:50:37.072Z,104088.47
2023-05-10T13:53:03.770Z,104064.22
2023-05-10T13:55:30.233Z,104072.16
2023-05-10T13:57:56.770Z,104049.69
2023-05-10T14:00:24.373Z,104059.69
2023-05-10T14:02:50.966Z,104080.78
2023-05-10T14:05:19.312Z,104098.84
2023-05-10T14:07:48.902Z,104120.41
2023-05-10T14:10:15.484Z,104130.22
2023-05-10T14:12:42.122Z,104158.94
2023-05-10T14:15:09.002Z,104164.88
2023-05-10T14:17:35.614Z,104220.81
2023-05-10T14:20:02.482Z,104226.38
2023-05-10T14:22:29.101Z,104257.25
2023-05-10T14:24:55.577Z,104293.06
2023-05-10T14:27:22.353Z,104251.41
2023-05-10T14:29:49.169Z,104286.69
2023-05-10T14:32:16.103Z,104313.84
2023-05-10T14:34:43.007Z,104381.78
2023-05-10T14:37:12.288Z,104402.44
2023-05-10T14:39:38.999Z,104465.25
2023-05-10T14:42:05.601Z,104472.84
2023-05-10T14:44:32.448Z,104537.00
2023-05-10T14:46:59.294Z,104799.22
2023-05-10T14:49:26.053Z,104796.19
2023-05-10T14:51:53.271Z,104896.31
2023-05-10T14:54:19.999Z,104943.25
2023-05-10T14:56:46.543Z,105119.19
2023-05-10T14:59:13.050Z,105165.25
2023-05-10T15:01:39.880Z,105263.59
2023-05-10T15:04:06.959Z,105341.31
2023-05-10T15:06:36.922Z,105568.72
2023-05-10T15:09:03.924Z,105505.91
2023-05-10T15:11:30.718Z,105500.13
2023-05-10T15:13:57.174Z,105386.69
2023-05-10T15:16:24.040Z,105163.69
2023-05-10T15:18:51.220Z,105136.66
2023-05-10T15:21:18.224Z,105387.63
2023-05-10T15:23:44.656Z,105780.06
2023-05-10T15:26:11.425Z,105976.72
2023-05-10T15:28:37.925Z,106211.75
2023-05-10T15:31:04.483Z,106179.88
2023-05-10T15:33:31.110Z,106154.81
2023-05-10T15:35:57.781Z,106093.88
2023-05-10T15:38:24.270Z,106489.44
2023-05-10T15:40:50.706Z,106558.75
2023-05-10T15:43:17.299Z,106570.06
2023-05-10T15:45:43.766Z,106723.97
2023-05-10T15:48:10.569Z,106849.31
2023-05-10T15:50:37.180Z,106780.63
2023-05-10T15:53:03.720Z,107214.72
2023-05-10T15:55:30.225Z,107163.31
2023-05-10T15:57:56.708Z,107362.16
2023-05-10T16:00:23.615Z,107913.50
2023-05-10T16:02:52.763Z,108133.13
2023-05-10T16:05:19.988Z,108314.59
2023-05-10T16:07:46.804Z,108307.44
2023-05-10T16:10:13.456Z,108522.09
2023-05-10T16:12:40.392Z,108821.53
2023-05-10T16:15:08.156Z,108983.47
2023-05-10T16:17:35.403Z,108972.47
2023-05-10T16:20:02.167Z,108989.25
2023-05-10T16:22:28.729Z,109261.22
2023-05-10T16:24:56.683Z,109770.53
2023-05-10T16:27:23.236Z,109775.72
2023-05-10T16:29:49.975Z,109512.88
2023-05-10T16:32:16.486Z,109807.31
2023-05-10T16:34:42.990Z,109524.28
2023-05-10T16:37:09.534Z,109732.88
2023-05-10T16:39:36.318Z,109726.72
2023-05-10T16:42:02.906Z,109670.69
2023-05-10T16:44:29.652Z,109342.16
2023-05-10T16:46:56.209Z,109624.25
2023-05-10T16:49:25.273Z,109640.00
2023-05-10T16:51:52.521Z,109540.13
2023-05-10T16:54:19.365Z,109367.56
2023-05-10T16:56:46.669Z,109178.34
2023-05-10T16:59:13.263Z,109136.38
2023-05-10T17:01:39.808Z,109185.47
2023-05-10T17:04:06.455Z,109401.84
2023-05-10T17:06:33.064Z,109183.59
2023-05-10T17:08:59.843Z,109103.84
2023-05-10T17:11:26.354Z,109348.28
2023-05-10T17:13:52.918Z,109357.72
2023-05-10T17:16:19.853Z,109419.03
2023-05-10T17:18:46.429Z,109407.75
2023-05-10T17:21:13.001Z,109479.72
2023-05-10T17:23:39.745Z,109301.81
2023-05-10T17:26:06.773Z,109329.75
2023-05-10T17:28:33.229Z,109457.91
2023-05-10T17:31:00.055Z,109354.56
2023-05-10T17:33:26.675Z,109392.97
2023-05-10T17:35:53.468Z,109225.66
2023-05-10T17:38:20.253Z,109375.41
2023-05-10T17:40:46.732Z,109329.97
2023-05-10T17:43:13.378Z,109317.78
2023-05-10T17:45:39.958Z,109280.91
2023-05-10T17:48:06.461Z,109331.00
2023-05-10T17:50:33.258Z,109132.38
2023-05-10T17:52:59.825Z,109269.59
2023-05-10T17:55:26.358Z,109297.72
2023-05-10T17:57:52.851Z,109084.22
2023-05-10T18:00:19.592Z,108991.13
2023-05-10T18:02:46.126Z,109120.81
2023-05-10T18:05:13.123Z,109125.00
2023-05-10T18:07:39.923Z,109116.34
2023-05-10T18:10:06.994Z,108996.94
2023-05-10T18:12:33.432Z,109157.13
2023-05-10T18:15:00.205Z,109090.38
2023-05-10T18:17:26.934Z,109081.97
2023-05-10T18:19:53.501Z,109130.41
2023-05-10T18:22:20.348Z,109252.03
2023-05-10T18:24:47.111Z,109442.94
2023-05-10T18:27:13.611Z,109761.75
2023-05-10T18:29:40.109Z,109643.56
2023-05-10T18:32:06.863Z,109632.19
2023-05-10T18:34:33.576Z,109625.16
2023-05-10T18:37:00.190Z,109760.00
2023-05-10T18:39:26.903Z,109776.63
2023-05-10T18:41:53.675Z,109765.25
2023-05-10T18:44:20.941Z,109797.69
2023-05-10T18:46:47.549Z,109724.97
2023-05-10T18:49:15.302Z,109738.13
2023-05-10T18:51:41.770Z,109945.78
2023-05-10T18:54:08.772Z,109910.69
2023-05-10T18:56:35.291Z,109987.78
2023-05-10T18:59:01.856Z,109953.63
2023-05-10T19:01:28.337Z,109980.84
2023-05-10T19:03:54.965Z,109867.81
2023-05-10T19:06:21.847Z,109944.84
2023-05-10T19:08:48.354Z,109955.31
2023-05-10T19:11:15.114Z,109979.81
2023-05-10T19:13:41.551Z,109798.53
2023-05-10T19:16:14.260Z,109940.41
2023-05-10T19:18:41.097Z,109933.38
2023-05-10T19:21:08.489Z,109937.75
2023-05-10T19:23:35.776Z,98071.88
2023-05-10T19:26:02.299Z,102877.09
2023-05-10T19:28:29.042Z,102844.66
2023-05-10T19:30:55.950Z,102718.63
2023-05-10T19:33:22.803Z,102678.03
2023-05-10T19:35:52.945Z,102482.66
2023-05-10T19:38:21.552Z,102295.09
2023-05-10T19:40:49.200Z,102210.78
2023-05-10T19:43:16.607Z,102265.81
2023-05-10T19:45:43.046Z,102337.19
2023-05-10T19:48:10.831Z,102590.97
2023-05-10T19:50:38.578Z,102577.75
2023-05-10T19:53:05.086Z,102523.88
2023-05-10T19:55:32.545Z,102375.69
2023-05-10T19:57:59.700Z,102667.13
2023-05-10T20:00:26.694Z,102750.84
2023-05-10T20:02:53.730Z,102619.59
2023-05-10T20:05:21.227Z,102372.84
2023-05-10T20:07:48.031Z,102476.31
2023-05-10T20:10:14.617Z,102505.50
2023-05-10T20:12:41.246Z,102644.44
2023-05-10T20:15:08.280Z,102591.34
2023-05-10T20:17:35.671Z,102758.78
2023-05-10T20:20:02.803Z,102802.00
2023-05-10T20:22:29.514Z,102854.28
2023-05-10T20:24:56.384Z,102968.44
2023-05-10T20:27:22.982Z,102868.38
2023-05-10T20:29:49.521Z,102899.47
2023-05-10T20:32:15.948Z,102967.78
2023-05-10T20:34:42.838Z,102981.06
2023-05-10T20:37:09.349Z,103090.47
2023-05-10T20:39:35.973Z,103082.63
2023-05-10T20:42:02.554Z,103169.38
2023-05-10T20:44:29.309Z,103105.97
2023-05-10T20:46:56.011Z,103109.25
2023-05-10T20:49:22.973Z,103231.91
2023-05-10T20:51:49.728Z,103241.78
2023-05-10T20:54:16.321Z,103231.84
2023-05-10T20:56:42.885Z,103203.13
2023-05-10T20:59:09.387Z,103299.16
2023-05-10T21:01:36.008Z,103137.66
2023-05-10T21:04:03.289Z,103281.06
2023-05-10T21:06:29.790Z,103315.69
2023-05-10T21:08:56.441Z,103359.03
2023-05-10T21:11:23.212Z,103296.09
2023-05-10T21:13:50.047Z,103455.19
2023-05-10T21:16:16.748Z,103538.59
2023-05-10T21:18:43.375Z,103528.56
2023-05-10T21:21:10.030Z,103636.09
2023-05-10T21:23:36.572Z,103660.47
2023-05-10T21:26:04.542Z,103653.72
2023-05-10T21:28:31.298Z,103853.53
2023-05-10T21:30:58.176Z,103853.25
2023-05-10T21:33:24.683Z,103718.22
2023-05-10T21:35:51.637Z,103809.72
2023-05-10T21:38:18.174Z,103775.69
2023-05-10T21:40:44.778Z,103772.50
2023-05-10T21:43:11.397Z,103826.38
2023-05-10T21:45:38.168Z,103798.25
2023-05-10T21:48:05.085Z,103846.53
2023-05-10T21:50:32.043Z,103827.34
2023-05-10T21:52:58.521Z,103619.97
2023-05-10T21:55:25.813Z,103595.03
2023-05-10T21:57:52.559Z,103533.81
2023-05-10T22:00:19.943Z,103556.84
2023-05-10T22:02:47.131Z,103595.41
2023-05-10T22:05:13.812Z,103685.72
2023-05-10T22:07:40.527Z,103753.06
2023-05-10T22:10:09.158Z,103746.63
2023-05-10T22:12:35.888Z,103828.97
2023-05-10T22:17:31.758Z,103906.72
2023-05-10T22:19:58.412Z,103792.75
2023-05-10T22:22:25.011Z,103795.81
2023-05-10T22:24:51.541Z,103773.59
2023-05-10T22:27:18.187Z,103860.56
2023-05-10T22:29:44.723Z,103884.19
2023-05-10T22:32:11.238Z,103715.16
2023-05-10T22:34:37.873Z,103821.31
2023-05-10T22:37:04.337Z,103767.13
2023-05-10T22:39:30.754Z,103863.16
2023-05-10T22:41:57.131Z,103883.66
2023-05-10T22:44:23.766Z,103873.34
2023-05-10T22:46:50.453Z,103801.31
2023-05-10T22:49:17.097Z,103785.88
2023-05-10T22:51:43.708Z,103799.78
2023-05-10T22:54:10.348Z,103844.91
2023-05-10T22:56:36.948Z,103800.28
2023-05-10T22:59:03.462Z,103776.75
2023-05-10T23:01:30.122Z,103825.34
2023-05-10T23:03:56.955Z,103801.09
2023-05-10T23:06:23.556Z,103789.63
2023-05-10T23:08:50.243Z,103860.69
2023-05-10T23:11:16.666Z,103786.53
2023-05-10T23:13:43.104Z,104018.00
2023-05-10T23:16:09.560Z,103976.56
2023-05-10T23:18:36.145Z,103963.41
2023-05-10T23:21:02.678Z,103999.91
2023-05-10T23:23:29.294Z,104115.22
2023-05-10T23:25:55.883Z,104191.72
2023-05-10T23:28:22.537Z,104165.28
2023-05-10T23:30:54.617Z,104168.94
2023-05-10T23:33:21.160Z,104114.25
2023-05-10T23:35:47.691Z,104247.28
2023-05-10T23:38:14.423Z,104229.22
2023-05-10T23:40:41.098Z,104290.44
2023-05-10T23:43:07.765Z,104280.66
2023-05-10T23:45:34.549Z,104214.69
2023-05-10T23:48:01.478Z,104202.38
2023-05-10T23:50:28.047Z,104272.75
2023-05-10T23:52:54.472Z,104176.31
2023-05-10T23:55:20.905Z,104128.25
2023-05-10T23:57:47.391Z,104192.31
